sensor_id;sensor_type;location;lat;lon;timestamp;P1;durP1;ratioP1;P2;durP2;ratioP2
25962;SDS011;13760;52.588;13.406;2023-06-22T00:00:18;14.63;;;13.07;;
25962;SDS011;13760;52.588;13.406;2023-06-22T00:02:45;14.25;;;12.95;;
25962;SDS011;13760;52.588;13.406;2023-06-22T00:05:10;14.48;;;13.05;;
25962;SDS011;13760;52.588;13.406;2023-06-22T00:07:35;15.43;;;13.55;;
25962;SDS011;13760;52.588;13.406;2023-06-22T00:10:01;14.30;;;12.90;;
25962;SDS011;13760;52.588;13.406;2023-06-22T00:12:26;16.00;;;13.23;;
25962;SDS011;13760;52.588;13.406;2023-06-22T00:14:52;14.52;;;13.13;;
25962;SDS011;13760;52.588;13.406;2023-06-22T00:17:18;13.50;;;12.20;;
25962;SDS011;13760;52.588;13.406;2023-06-22T00:19:43;13.52;;;12.32;;
25962;SDS011;13760;52.588;13.406;2023-06-22T00:22:12;13.23;;;11.88;;
25962;SDS011;13760;52.588;13.406;2023-06-22T00:24:37;14.23;;;12.18;;
25962;SDS011;13760;52.588;13.406;2023-06-22T00:27:03;13.75;;;12.32;;
25962;SDS011;13760;52.588;13.406;2023-06-22T00:29:30;13.73;;;12.25;;
25962;SDS011;13760;52.588;13.406;2023-06-22T00:31:55;16.00;;;12.63;;
25962;SDS011;13760;52.588;13.406;2023-06-22T00:34:21;13.90;;;12.23;;
25962;SDS011;13760;52.588;13.406;2023-06-22T00:36:46;14.20;;;12.73;;
25962;SDS011;13760;52.588;13.406;2023-06-22T00:39:12;12.80;;;11.57;;
25962;SDS011;13760;52.588;13.406;2023-06-22T00:41:38;13.27;;;11.98;;
25962;SDS011;13760;52.588;13.406;2023-06-22T00:44:03;12.73;;;11.43;;
25962;SDS011;13760;52.588;13.406;2023-06-22T00:46:29;18.38;;;12.68;;
25962;SDS011;13760;52.588;13.406;2023-06-22T00:48:55;13.55;;;12.05;;
25962;SDS011;13760;52.588;13.406;2023-06-22T00:51:22;13.45;;;12.07;;
25962;SDS011;13760;52.588;13.406;2023-06-22T00:53:49;13.85;;;12.55;;
25962;SDS011;13760;52.588;13.406;2023-06-22T00:56:16;13.77;;;12.38;;
25962;SDS011;13760;52.588;13.406;2023-06-22T00:58:44;14.38;;;12.75;;
25962;SDS011;13760;52.588;13.406;2023-06-22T01:01:12;13.57;;;12.23;;
25962;SDS011;13760;52.588;13.406;2023-06-22T01:03:39;14.73;;;13.20;;
25962;SDS011;13760;52.588;13.406;2023-06-22T01:06:09;15.70;;;13.25;;
25962;SDS011;13760;52.588;13.406;2023-06-22T01:08:42;19.48;;;13.43;;
25962;SDS011;13760;52.588;13.406;2023-06-22T01:11:26;15.07;;;13.48;;
25962;SDS011;13760;52.588;13.406;2023-06-22T01:14:06;13.95;;;12.65;;
25962;SDS011;13760;52.588;13.406;2023-06-22T01:16:44;14.57;;;13.18;;
25962;SDS011;13760;52.588;13.406;2023-06-22T01:19:27;14.18;;;12.70;;
25962;SDS011;13760;52.588;13.406;2023-06-22T01:22:06;14.50;;;13.10;;
25962;SDS011;13760;52.588;13.406;2023-06-22T01:30:15;15.17;;;13.67;;
25962;SDS011;13760;52.588;13.406;2023-06-22T01:32:43;14.77;;;13.27;;
25962;SDS011;13760;52.588;13.406;2023-06-22T01:35:09;15.07;;;13.52;;
25962;SDS011;13760;52.588;13.406;2023-06-22T01:37:36;15.30;;;13.80;;
25962;SDS011;13760;52.588;13.406;2023-06-22T01:40:02;15.55;;;14.05;;
25962;SDS011;13760;52.588;13.406;2023-06-22T01:42:31;14.60;;;13.00;;
25962;SDS011;13760;52.588;13.406;2023-06-22T01:44:57;14.35;;;12.90;;
25962;SDS011;13760;52.588;13.406;2023-06-22T01:47:24;15.77;;;14.15;;
25962;SDS011;13760;52.588;13.406;2023-06-22T01:49:50;15.00;;;13.50;;
25962;SDS011;13760;52.588;13.406;2023-06-22T01:52:16;15.93;;;13.60;;
25962;SDS011;13760;52.588;13.406;2023-06-22T01:54:42;15.40;;;13.90;;
25962;SDS011;13760;52.588;13.406;2023-06-22T01:57:08;14.43;;;13.02;;
25962;SDS011;13760;52.588;13.406;2023-06-22T01:59:37;15.95;;;13.90;;
25962;SDS011;13760;52.588;13.406;2023-06-22T02:02:12;15.80;;;14.23;;
25962;SDS011;13760;52.588;13.406;2023-06-22T02:07:12;15.47;;;13.73;;
25962;SDS011;13760;52.588;13.406;2023-06-22T02:09:41;15.93;;;14.32;;
25962;SDS011;13760;52.588;13.406;2023-06-22T02:12:10;16.58;;;13.63;;
25962;SDS011;13760;52.588;13.406;2023-06-22T02:14:37;15.63;;;14.18;;
25962;SDS011;13760;52.588;13.406;2023-06-22T02:17:04;14.98;;;13.38;;
25962;SDS011;13760;52.588;13.406;2023-06-22T02:19:35;15.95;;;14.35;;
25962;SDS011;13760;52.588;13.406;2023-06-22T02:22:01;16.25;;;14.02;;
25962;SDS011;13760;52.588;13.406;2023-06-22T02:24:28;19.52;;;14.95;;
25962;SDS011;13760;52.588;13.406;2023-06-22T02:26:56;18.50;;;14.95;;
25962;SDS011;13760;52.588;13.406;2023-06-22T02:29:23;17.42;;;15.52;;
25962;SDS011;13760;52.588;13.406;2023-06-22T02:31:48;19.73;;;14.80;;
25962;SDS011;13760;52.588;13.406;2023-06-22T02:34:14;17.20;;;15.35;;
25962;SDS011;13760;52.588;13.406;2023-06-22T02:36:43;20.95;;;14.70;;
25962;SDS011;13760;52.588;13.406;2023-06-22T02:39:15;16.63;;;14.63;;
25962;SDS011;13760;52.588;13.406;2023-06-22T02:41:51;17.25;;;15.10;;
25962;SDS011;13760;52.588;13.406;2023-06-22T02:44:18;18.27;;;15.63;;
25962;SDS011;13760;52.588;13.406;2023-06-22T02:46:44;18.55;;;15.20;;
25962;SDS011;13760;52.588;13.406;2023-06-22T02:49:10;16.65;;;15.05;;
25962;SDS011;13760;52.588;13.406;2023-06-22T02:51:37;16.77;;;15.05;;
25962;SDS011;13760;52.588;13.406;2023-06-22T02:54:04;18.25;;;16.35;;
25962;SDS011;13760;52.588;13.406;2023-06-22T02:56:33;18.00;;;16.10;;
25962;SDS011;13760;52.588;13.406;2023-06-22T02:58:58;16.30;;;14.73;;
25962;SDS011;13760;52.588;13.406;2023-06-22T03:01:29;19.20;;;16.45;;
25962;SDS011;13760;52.588;13.406;2023-06-22T03:03:58;16.92;;;15.32;;
25962;SDS011;13760;52.588;13.406;2023-06-22T03:06:23;17.85;;;16.25;;
25962;SDS011;13760;52.588;13.406;2023-06-22T03:08:54;17.20;;;15.38;;
25962;SDS011;13760;52.588;13.406;2023-06-22T03:11:24;17.85;;;15.75;;
25962;SDS011;13760;52.588;13.406;2023-06-22T03:13:50;17.10;;;15.40;;
25962;SDS011;13760;52.588;13.406;2023-06-22T03:16:17;17.85;;;15.95;;
25962;SDS011;13760;52.588;13.406;2023-06-22T03:18:42;20.63;;;16.52;;
25962;SDS011;13760;52.588;13.406;2023-06-22T03:21:08;20.83;;;17.30;;
25962;SDS011;13760;52.588;13.406;2023-06-22T03:23:34;18.95;;;17.08;;
25962;SDS011;13760;52.588;13.406;2023-06-22T03:25:59;18.98;;;17.08;;
25962;SDS011;13760;52.588;13.406;2023-06-22T03:28:25;19.85;;;17.75;;
25962;SDS011;13760;52.588;13.406;2023-06-22T03:30:50;20.02;;;17.90;;
25962;SDS011;13760;52.588;13.406;2023-06-22T03:33:16;18.77;;;16.75;;
25962;SDS011;13760;52.588;13.406;2023-06-22T03:35:41;21.45;;;19.25;;
25962;SDS011;13760;52.588;13.406;2023-06-22T03:38:07;22.52;;;20.17;;
25962;SDS011;13760;52.588;13.406;2023-06-22T03:40:32;22.13;;;18.23;;
25962;SDS011;13760;52.588;13.406;2023-06-22T03:42:58;23.08;;;18.90;;
25962;SDS011;13760;52.588;13.406;2023-06-22T03:45:23;21.42;;;18.83;;
25962;SDS011;13760;52.588;13.406;2023-06-22T03:47:49;23.73;;;18.48;;
25962;SDS011;13760;52.588;13.406;2023-06-22T03:50:14;22.15;;;19.75;;
25962;SDS011;13760;52.588;13.406;2023-06-22T03:52:40;20.85;;;18.65;;
25962;SDS011;13760;52.588;13.406;2023-06-22T03:55:06;22.25;;;19.15;;
25962;SDS011;13760;52.588;13.406;2023-06-22T03:57:32;21.88;;;19.52;;
25962;SDS011;13760;52.588;13.406;2023-06-22T04:00:00;21.90;;;19.58;;
25962;SDS011;13760;52.588;13.406;2023-06-22T04:02:26;24.20;;;19.17;;
25962;SDS011;13760;52.588;13.406;2023-06-22T04:04:51;24.10;;;20.20;;
25962;SDS011;13760;52.588;13.406;2023-06-22T04:07:17;19.48;;;17.48;;
25962;SDS011;13760;52.588;13.406;2023-06-22T04:09:42;22.63;;;18.33;;
25962;SDS011;13760;52.588;13.406;2023-06-22T04:12:08;21.70;;;19.45;;
25962;SDS011;13760;52.588;13.406;2023-06-22T04:14:34;21.52;;;17.90;;
25962;SDS011;13760;52.588;13.406;2023-06-22T04:16:59;19.38;;;17.27;;
25962;SDS011;13760;52.588;13.406;2023-06-22T04:19:26;23.15;;;17.60;;
25962;SDS011;13760;52.588;13.406;2023-06-22T04:21:52;20.63;;;15.60;;
25962;SDS011;13760;52.588;13.406;2023-06-22T04:24:17;17.45;;;15.32;;
25962;SDS011;13760;52.588;13.406;2023-06-22T04:26:43;18.45;;;15.48;;
25962;SDS011;13760;52.588;13.406;2023-06-22T04:29:10;19.38;;;14.25;;
25962;SDS011;13760;52.588;13.406;2023-06-22T04:31:36;15.77;;;14.15;;
25962;SDS011;13760;52.588;13.406;2023-06-22T04:34:03;20.42;;;13.93;;
25962;SDS011;13760;52.588;13.406;2023-06-22T04:36:35;20.05;;;13.32;;
25962;SDS011;13760;52.588;13.406;2023-06-22T04:39:06;15.35;;;13.75;;
25962;SDS011;13760;52.588;13.406;2023-06-22T04:41:34;13.43;;;11.90;;
25962;SDS011;13760;52.588;13.406;2023-06-22T04:46:35;14.05;;;11.57;;
25962;SDS011;13760;52.588;13.406;2023-06-22T04:49:09;17.83;;;10.40;;
25962;SDS011;13760;52.588;13.406;2023-06-22T04:51:41;13.88;;;10.75;;
25962;SDS011;13760;52.588;13.406;2023-06-22T04:54:08;13.70;;;10.20;;
25962;SDS011;13760;52.588;13.406;2023-06-22T04:56:34;12.80;;;9.77;;
25962;SDS011;13760;52.588;13.406;2023-06-22T04:59:00;16.00;;;10.10;;
25962;SDS011;13760;52.588;13.406;2023-06-22T05:01:26;12.90;;;9.88;;
25962;SDS011;13760;52.588;13.406;2023-06-22T05:03:52;10.85;;;9.63;;
25962;SDS011;13760;52.588;13.406;2023-06-22T05:06:23;12.00;;;8.70;;
25962;SDS011;13760;52.588;13.406;2023-06-22T05:08:51;12.15;;;9.77;;
25962;SDS011;13760;52.588;13.406;2023-06-22T05:11:18;11.13;;;8.85;;
25962;SDS011;13760;52.588;13.406;2023-06-22T05:13:43;12.98;;;9.48;;
25962;SDS011;13760;52.588;13.406;2023-06-22T05:16:09;12.77;;;9.15;;
25962;SDS011;13760;52.588;13.406;2023-06-22T05:18:36;13.40;;;9.70;;
25962;SDS011;13760;52.588;13.406;2023-06-22T05:21:06;11.02;;;8.77;;
25962;SDS011;13760;52.588;13.406;2023-06-22T05:23:34;14.63;;;8.87;;
25962;SDS011;13760;52.588;13.406;2023-06-22T05:26:00;12.23;;;7.95;;
25962;SDS011;13760;52.588;13.406;2023-06-22T05:28:25;10.90;;;7.40;;
25962;SDS011;13760;52.588;13.406;2023-06-22T05:30:51;13.77;;;7.07;;
25962;SDS011;13760;52.588;13.406;2023-06-22T05:33:17;8.65;;;6.78;;
25962;SDS011;13760;52.588;13.406;2023-06-22T05:35:42;6.40;;;5.80;;
25962;SDS011;13760;52.588;13.406;2023-06-22T05:38:08;8.73;;;5.93;;
25962;SDS011;13760;52.588;13.406;2023-06-22T05:40:38;10.13;;;5.93;;
25962;SDS011;13760;52.588;13.406;2023-06-22T05:43:09;8.13;;;5.80;;
25962;SDS011;13760;52.588;13.406;2023-06-22T05:45:35;7.20;;;4.88;;
25962;SDS011;13760;52.588;13.406;2023-06-22T05:48:01;6.85;;;4.88;;
25962;SDS011;13760;52.588;13.406;2023-06-22T05:50:26;8.63;;;5.05;;
25962;SDS011;13760;52.588;13.406;2023-06-22T05:52:52;7.25;;;4.75;;
25962;SDS011;13760;52.588;13.406;2023-06-22T05:55:17;7.40;;;4.95;;
25962;SDS011;13760;52.588;13.406;2023-06-22T05:57:43;8.35;;;4.50;;
25962;SDS011;13760;52.588;13.406;2023-06-22T06:00:09;5.72;;;5.13;;
25962;SDS011;13760;52.588;13.406;2023-06-22T06:02:35;6.30;;;4.43;;
25962;SDS011;13760;52.588;13.406;2023-06-22T06:05:01;7.70;;;4.47;;
25962;SDS011;13760;52.588;13.406;2023-06-22T06:07:27;6.38;;;4.13;;
25962;SDS011;13760;52.588;13.406;2023-06-22T06:09:53;6.50;;;4.78;;
25962;SDS011;13760;52.588;13.406;2023-06-22T06:12:18;7.68;;;4.13;;
25962;SDS011;13760;52.588;13.406;2023-06-22T06:14:44;5.60;;;4.22;;
25962;SDS011;13760;52.588;13.406;2023-06-22T06:17:09;8.13;;;4.38;;
25962;SDS011;13760;52.588;13.406;2023-06-22T06:19:35;8.27;;;4.50;;
25962;SDS011;13760;52.588;13.406;2023-06-22T06:22:00;5.03;;;4.18;;
25962;SDS011;13760;52.588;13.406;2023-06-22T06:24:26;5.70;;;4.32;;
25962;SDS011;13760;52.588;13.406;2023-06-22T06:26:52;6.43;;;4.80;;
25962;SDS011;13760;52.588;13.406;2023-06-22T06:29:17;9.50;;;4.57;;
25962;SDS011;13760;52.588;13.406;2023-06-22T06:31:43;5.05;;;4.18;;
25962;SDS011;13760;52.588;13.406;2023-06-22T06:34:08;5.07;;;4.03;;
25962;SDS011;13760;52.588;13.406;2023-06-22T06:36:34;6.70;;;4.35;;
25962;SDS011;13760;52.588;13.406;2023-06-22T06:39:00;10.43;;;4.78;;
25962;SDS011;13760;52.588;13.406;2023-06-22T06:41:25;5.95;;;4.45;;
25962;SDS011;13760;52.588;13.406;2023-06-22T06:43:51;5.72;;;4.38;;
25962;SDS011;13760;52.588;13.406;2023-06-22T06:46:16;5.47;;;4.13;;
25962;SDS011;13760;52.588;13.406;2023-06-22T06:48:44;7.45;;;4.47;;
25962;SDS011;13760;52.588;13.406;2023-06-22T06:51:09;4.95;;;4.15;;
25962;SDS011;13760;52.588;13.406;2023-06-22T06:53:35;5.40;;;3.55;;
25962;SDS011;13760;52.588;13.406;2023-06-22T06:56:07;6.03;;;3.70;;
25962;SDS011;13760;52.588;13.406;2023-06-22T06:58:35;8.10;;;3.40;;
25962;SDS011;13760;52.588;13.406;2023-06-22T07:01:01;7.97;;;3.63;;
25962;SDS011;13760;52.588;13.406;2023-06-22T07:03:28;7.05;;;3.58;;
25962;SDS011;13760;52.588;13.406;2023-06-22T07:05:53;5.55;;;3.35;;
25962;SDS011;13760;52.588;13.406;2023-06-22T07:08:19;5.28;;;3.92;;
25962;SDS011;13760;52.588;13.406;2023-06-22T07:10:45;4.57;;;3.50;;
25962;SDS011;13760;52.588;13.406;2023-06-22T07:13:10;4.72;;;3.22;;
25962;SDS011;13760;52.588;13.406;2023-06-22T07:15:36;7.45;;;3.50;;
25962;SDS011;13760;52.588;13.406;2023-06-22T07:18:01;5.63;;;3.17;;
25962;SDS011;13760;52.588;13.406;2023-06-22T07:20:27;5.78;;;3.08;;
25962;SDS011;13760;52.588;13.406;2023-06-22T07:22:52;4.28;;;3.22;;
25962;SDS011;13760;52.588;13.406;2023-06-22T07:25:18;5.45;;;3.17;;
25962;SDS011;13760;52.588;13.406;2023-06-22T07:27:45;6.03;;;3.13;;
25962;SDS011;13760;52.588;13.406;2023-06-22T07:30:31;6.07;;;3.53;;
25962;SDS011;13760;52.588;13.406;2023-06-22T07:32:59;6.07;;;3.15;;
25962;SDS011;13760;52.588;13.406;2023-06-22T07:35:28;6.03;;;2.97;;
25962;SDS011;13760;52.588;13.406;2023-06-22T07:37:54;8.32;;;3.15;;
25962;SDS011;13760;52.588;13.406;2023-06-22T07:40:20;6.00;;;3.20;;
25962;SDS011;13760;52.588;13.406;2023-06-22T07:42:45;5.50;;;3.03;;
25962;SDS011;13760;52.588;13.406;2023-06-22T07:45:13;4.13;;;3.20;;
25962;SDS011;13760;52.588;13.406;2023-06-22T07:47:42;4.00;;;3.10;;
25962;SDS011;13760;52.588;13.406;2023-06-22T07:50:07;5.30;;;2.85;;
25962;SDS011;13760;52.588;13.406;2023-06-22T07:52:33;5.18;;;3.05;;
25962;SDS011;13760;52.588;13.406;2023-06-22T07:54:59;3.90;;;2.63;;
25962;SDS011;13760;52.588;13.406;2023-06-22T07:57:25;3.00;;;2.63;;
25962;SDS011;13760;52.588;13.406;2023-06-22T08:00:07;4.13;;;2.80;;
25962;SDS011;13760;52.588;13.406;2023-06-22T08:02:41;2.65;;;2.45;;
25962;SDS011;13760;52.588;13.406;2023-06-22T08:05:07;6.05;;;2.75;;
25962;SDS011;13760;52.588;13.406;2023-06-22T08:07:35;6.85;;;3.10;;
25962;SDS011;13760;52.588;13.406;2023-06-22T08:10:02;4.38;;;2.60;;
25962;SDS011;13760;52.588;13.406;2023-06-22T08:12:28;3.80;;;2.90;;
25962;SDS011;13760;52.588;13.406;2023-06-22T08:14:54;3.33;;;2.50;;
25962;SDS011;13760;52.588;13.406;2023-06-22T08:17:19;4.10;;;2.78;;
25962;SDS011;13760;52.588;13.406;2023-06-22T08:19:45;6.15;;;2.63;;
25962;SDS011;13760;52.588;13.406;2023-06-22T08:22:10;4.82;;;2.47;;
25962;SDS011;13760;52.588;13.406;2023-06-22T08:24:36;5.90;;;2.47;;
25962;SDS011;13760;52.588;13.406;2023-06-22T08:27:01;3.45;;;2.45;;
25962;SDS011;13760;52.588;13.406;2023-06-22T08:29:27;5.57;;;2.80;;
25962;SDS011;13760;52.588;13.406;2023-06-22T08:31:52;4.63;;;2.67;;
25962;SDS011;13760;52.588;13.406;2023-06-22T08:34:18;8.50;;;3.10;;
25962;SDS011;13760;52.588;13.406;2023-06-22T08:36:46;3.50;;;2.40;;
25962;SDS011;13760;52.588;13.406;2023-06-22T08:39:17;4.82;;;2.47;;
25962;SDS011;13760;52.588;13.406;2023-06-22T08:41:44;4.40;;;2.88;;
25962;SDS011;13760;52.588;13.406;2023-06-22T08:44:10;4.43;;;2.60;;
25962;SDS011;13760;52.588;13.406;2023-06-22T08:46:35;3.45;;;2.60;;
25962;SDS011;13760;52.588;13.406;2023-06-22T08:49:01;5.10;;;2.50;;
25962;SDS011;13760;52.588;13.406;2023-06-22T08:51:27;5.10;;;2.72;;
25962;SDS011;13760;52.588;13.406;2023-06-22T08:53:53;4.30;;;2.63;;
25962;SDS011;13760;52.588;13.406;2023-06-22T08:56:19;3.38;;;2.50;;
25962;SDS011;13760;52.588;13.406;2023-06-22T08:58:44;4.63;;;2.70;;
25962;SDS011;13760;52.588;13.406;2023-06-22T09:01:10;7.45;;;2.60;;
25962;SDS011;13760;52.588;13.406;2023-06-22T09:03:35;5.18;;;2.70;;
25962;SDS011;13760;52.588;13.406;2023-06-22T09:06:02;3.47;;;2.83;;
25962;SDS011;13760;52.588;13.406;2023-06-22T09:08:28;4.00;;;2.72;;
25962;SDS011;13760;52.588;13.406;2023-06-22T09:10:53;6.95;;;2.88;;
25962;SDS011;13760;52.588;13.406;2023-06-22T09:13:19;3.92;;;2.90;;
25962;SDS011;13760;52.588;13.406;2023-06-22T09:15:45;5.07;;;3.03;;
25962;SDS011;13760;52.588;13.406;2023-06-22T09:18:10;4.10;;;3.20;;
25962;SDS011;13760;52.588;13.406;2023-06-22T09:20:36;3.58;;;2.88;;
25962;SDS011;13760;52.588;13.406;2023-06-22T09:23:02;6.13;;;2.65;;
25962;SDS011;13760;52.588;13.406;2023-06-22T09:25:27;3.90;;;3.03;;
25962;SDS011;13760;52.588;13.406;2023-06-22T09:27:53;4.32;;;3.35;;
25962;SDS011;13760;52.588;13.406;2023-06-22T09:30:18;4.55;;;2.97;;
25962;SDS011;13760;52.588;13.406;2023-06-22T09:32:44;5.13;;;3.10;;
25962;SDS011;13760;52.588;13.406;2023-06-22T09:35:09;4.82;;;3.30;;
25962;SDS011;13760;52.588;13.406;2023-06-22T09:37:37;6.20;;;2.80;;
25962;SDS011;13760;52.588;13.406;2023-06-22T09:40:03;4.75;;;3.30;;
25962;SDS011;13760;52.588;13.406;2023-06-22T09:42:37;3.88;;;2.90;;
25962;SDS011;13760;52.588;13.406;2023-06-22T09:45:03;8.40;;;3.25;;
25962;SDS011;13760;52.588;13.406;2023-06-22T09:47:29;4.03;;;3.17;;
25962;SDS011;13760;52.588;13.406;2023-06-22T09:49:55;3.95;;;3.35;;
25962;SDS011;13760;52.588;13.406;2023-06-22T09:52:21;3.63;;;3.08;;
25962;SDS011;13760;52.588;13.406;2023-06-22T09:54:46;22.33;;;3.50;;
25962;SDS011;13760;52.588;13.406;2023-06-22T09:57:12;4.85;;;3.45;;
25962;SDS011;13760;52.588;13.406;2023-06-22T09:59:38;7.70;;;3.00;;
25962;SDS011;13760;52.588;13.406;2023-06-22T10:02:05;4.20;;;2.75;;
25962;SDS011;13760;52.588;13.406;2023-06-22T10:04:31;4.32;;;3.55;;
25962;SDS011;13760;52.588;13.406;2023-06-22T10:06:57;7.88;;;3.65;;
25962;SDS011;13760;52.588;13.406;2023-06-22T10:09:22;7.18;;;3.35;;
25962;SDS011;13760;52.588;13.406;2023-06-22T10:11:48;5.10;;;3.20;;
25962;SDS011;13760;52.588;13.406;2023-06-22T10:14:13;4.18;;;3.00;;
25962;SDS011;13760;52.588;13.406;2023-06-22T10:16:39;4.10;;;3.10;;
25962;SDS011;13760;52.588;13.406;2023-06-22T10:19:06;7.40;;;3.30;;
25962;SDS011;13760;52.588;13.406;2023-06-22T10:21:31;7.20;;;3.17;;
25962;SDS011;13760;52.588;13.406;2023-06-22T10:23:57;5.13;;;3.25;;
25962;SDS011;13760;52.588;13.406;2023-06-22T10:26:24;6.60;;;3.08;;
25962;SDS011;13760;52.588;13.406;2023-06-22T10:28:49;4.45;;;3.20;;
25962;SDS011;13760;52.588;13.406;2023-06-22T10:31:15;5.95;;;3.30;;
25962;SDS011;13760;52.588;13.406;2023-06-22T10:33:41;4.97;;;3.20;;
25962;SDS011;13760;52.588;13.406;2023-06-22T10:36:08;5.63;;;3.33;;
25962;SDS011;13760;52.588;13.406;2023-06-22T10:38:35;6.03;;;3.10;;
25962;SDS011;13760;52.588;13.406;2023-06-22T10:41:01;4.75;;;3.20;;
25962;SDS011;13760;52.588;13.406;2023-06-22T10:43:27;8.88;;;3.50;;
25962;SDS011;13760;52.588;13.406;2023-06-22T10:45:53;4.15;;;3.30;;
25962;SDS011;13760;52.588;13.406;2023-06-22T10:48:18;9.70;;;3.30;;
25962;SDS011;13760;52.588;13.406;2023-06-22T10:50:44;4.13;;;3.20;;
25962;SDS011;13760;52.588;13.406;2023-06-22T10:53:09;4.05;;;3.38;;
25962;SDS011;13760;52.588;13.406;2023-06-22T10:55:34;3.53;;;3.20;;
25962;SDS011;13760;52.588;13.406;2023-06-22T10:58:00;4.30;;;3.30;;
25962;SDS011;13760;52.588;13.406;2023-06-22T11:00:26;3.67;;;2.88;;
25962;SDS011;13760;52.588;13.406;2023-06-22T11:02:51;3.20;;;2.88;;
25962;SDS011;13760;52.588;13.406;2023-06-22T11:05:17;6.80;;;3.33;;
25962;SDS011;13760;52.588;13.406;2023-06-22T11:07:42;6.28;;;3.47;;
25962;SDS011;13760;52.588;13.406;2023-06-22T11:10:09;4.55;;;3.30;;
25962;SDS011;13760;52.588;13.406;2023-06-22T11:12:35;6.82;;;3.30;;
25962;SDS011;13760;52.588;13.406;2023-06-22T11:15:00;4.05;;;3.30;;
25962;SDS011;13760;52.588;13.406;2023-06-22T11:17:26;5.47;;;3.10;;
25962;SDS011;13760;52.588;13.406;2023-06-22T11:19:52;4.65;;;3.53;;
25962;SDS011;13760;52.588;13.406;2023-06-22T11:22:17;3.85;;;3.08;;
25962;SDS011;13760;52.588;13.406;2023-06-22T11:24:43;6.20;;;3.38;;
25962;SDS011;13760;52.588;13.406;2023-06-22T11:27:08;4.63;;;2.90;;
25962;SDS011;13760;52.588;13.406;2023-06-22T11:29:34;3.67;;;3.25;;
25962;SDS011;13760;52.588;13.406;2023-06-22T11:32:00;4.15;;;3.05;;
25962;SDS011;13760;52.588;13.406;2023-06-22T11:34:26;5.45;;;3.05;;
25962;SDS011;13760;52.588;13.406;2023-06-22T11:36:52;4.03;;;3.33;;
25962;SDS011;13760;52.588;13.406;2023-06-22T11:39:18;3.55;;;3.25;;
25962;SDS011;13760;52.588;13.406;2023-06-22T11:41:44;4.25;;;3.20;;
25962;SDS011;13760;52.588;13.406;2023-06-22T11:44:09;3.92;;;3.05;;
25962;SDS011;13760;52.588;13.406;2023-06-22T11:46:35;5.25;;;3.13;;
25962;SDS011;13760;52.588;13.406;2023-06-22T11:49:00;4.93;;;3.03;;
25962;SDS011;13760;52.588;13.406;2023-06-22T11:51:26;4.10;;;3.20;;
25962;SDS011;13760;52.588;13.406;2023-06-22T11:53:53;5.95;;;3.50;;
25962;SDS011;13760;52.588;13.406;2023-06-22T11:56:18;3.45;;;2.92;;
25962;SDS011;13760;52.588;13.406;2023-06-22T11:58:44;5.63;;;2.95;;
25962;SDS011;13760;52.588;13.406;2023-06-22T12:01:09;4.53;;;3.40;;
25962;SDS011;13760;52.588;13.406;2023-06-22T12:03:35;3.40;;;3.08;;
25962;SDS011;13760;52.588;13.406;2023-06-22T12:06:00;5.88;;;3.50;;
25962;SDS011;13760;52.588;13.406;2023-06-22T12:08:26;3.88;;;3.42;;
25962;SDS011;13760;52.588;13.406;2023-06-22T12:10:51;3.90;;;3.15;;
25962;SDS011;13760;52.588;13.406;2023-06-22T12:13:18;4.60;;;3.65;;
25962;SDS011;13760;52.588;13.406;2023-06-22T12:15:44;4.40;;;3.72;;
25962;SDS011;13760;52.588;13.406;2023-06-22T12:18:10;6.55;;;3.45;;
25962;SDS011;13760;52.588;13.406;2023-06-22T12:20:35;5.10;;;3.42;;
25962;SDS011;13760;52.588;13.406;2023-06-22T12:23:01;3.83;;;3.40;;
25962;SDS011;13760;52.588;13.406;2023-06-22T12:25:26;5.80;;;3.78;;
25962;SDS011;13760;52.588;13.406;2023-06-22T12:27:52;4.38;;;3.65;;
25962;SDS011;13760;52.588;13.406;2023-06-22T12:30:18;4.03;;;3.53;;
25962;SDS011;13760;52.588;13.406;2023-06-22T12:32:44;4.97;;;3.63;;
25962;SDS011;13760;52.588;13.406;2023-06-22T12:35:09;4.40;;;3.28;;
25962;SDS011;13760;52.588;13.406;2023-06-22T12:37:39;4.32;;;3.42;;
25962;SDS011;13760;52.588;13.406;2023-06-22T12:40:06;7.25;;;3.95;;
25962;SDS011;13760;52.588;13.406;2023-06-22T12:42:32;6.00;;;3.67;;
25962;SDS011;13760;52.588;13.406;2023-06-22T12:44:57;3.40;;;3.00;;
25962;SDS011;13760;52.588;13.406;2023-06-22T12:47:23;8.23;;;3.60;;
25962;SDS011;13760;52.588;13.406;2023-06-22T12:49:48;7.63;;;4.07;;
25962;SDS011;13760;52.588;13.406;2023-06-22T12:52:14;5.80;;;3.72;;
25962;SDS011;13760;52.588;13.406;2023-06-22T12:54:40;5.88;;;4.22;;
25962;SDS011;13760;52.588;13.406;2023-06-22T12:57:06;4.68;;;4.10;;
25962;SDS011;13760;52.588;13.406;2023-06-22T12:59:31;5.05;;;3.83;;
25962;SDS011;13760;52.588;13.406;2023-06-22T13:01:57;6.20;;;3.85;;
25962;SDS011;13760;52.588;13.406;2023-06-22T13:04:22;5.97;;;4.25;;
25962;SDS011;13760;52.588;13.406;2023-06-22T13:06:48;4.75;;;3.95;;
25962;SDS011;13760;52.588;13.406;2023-06-22T13:09:14;4.82;;;4.35;;
25962;SDS011;13760;52.588;13.406;2023-06-22T13:11:41;4.35;;;3.80;;
25962;SDS011;13760;52.588;13.406;2023-06-22T13:14:07;7.05;;;4.20;;
25962;SDS011;13760;52.588;13.406;2023-06-22T13:16:33;4.88;;;4.47;;
25962;SDS011;13760;52.588;13.406;2023-06-22T13:18:59;5.00;;;4.50;;
25962;SDS011;13760;52.588;13.406;2023-06-22T13:21:24;7.00;;;4.28;;
25962;SDS011;13760;52.588;13.406;2023-06-22T13:23:50;4.43;;;4.03;;
25962;SDS011;13760;52.588;13.406;2023-06-22T13:26:15;4.80;;;4.32;;
25962;SDS011;13760;52.588;13.406;2023-06-22T13:28:41;4.95;;;4.25;;
25962;SDS011;13760;52.588;13.406;2023-06-22T13:31:06;4.88;;;4.13;;
25962;SDS011;13760;52.588;13.406;2023-06-22T13:33:32;4.53;;;3.95;;
25962;SDS011;13760;52.588;13.406;2023-06-22T13:35:57;5.00;;;4.50;;
25962;SDS011;13760;52.588;13.406;2023-06-22T13:38:23;4.50;;;4.10;;
25962;SDS011;13760;52.588;13.406;2023-06-22T13:40:49;4.60;;;4.20;;
25962;SDS011;13760;52.588;13.406;2023-06-22T13:43:14;4.30;;;3.90;;
25962;SDS011;13760;52.588;13.406;2023-06-22T13:45:42;4.75;;;4.20;;
25962;SDS011;13760;52.588;13.406;2023-06-22T13:48:08;4.90;;;3.80;;
25962;SDS011;13760;52.588;13.406;2023-06-22T13:50:35;4.38;;;3.97;;
25962;SDS011;13760;52.588;13.406;2023-06-22T13:53:01;4.85;;;4.10;;
25962;SDS011;13760;52.588;13.406;2023-06-22T13:55:26;4.32;;;3.92;;
25962;SDS011;13760;52.588;13.406;2023-06-22T13:57:52;5.10;;;4.20;;
25962;SDS011;13760;52.588;13.406;2023-06-22T14:00:18;5.50;;;4.65;;
25962;SDS011;13760;52.588;13.406;2023-06-22T14:02:44;4.80;;;4.35;;
25962;SDS011;13760;52.588;13.406;2023-06-22T14:05:12;5.00;;;4.47;;
25962;SDS011;13760;52.588;13.406;2023-06-22T14:07:38;6.45;;;4.38;;
25962;SDS011;13760;52.588;13.406;2023-06-22T14:10:04;4.30;;;3.88;;
25962;SDS011;13760;52.588;13.406;2023-06-22T14:12:30;4.70;;;4.20;;
25962;SDS011;13760;52.588;13.406;2023-06-22T14:14:55;5.03;;;3.92;;
25962;SDS011;13760;52.588;13.406;2023-06-22T14:17:22;4.50;;;4.07;;
25962;SDS011;13760;52.588;13.406;2023-06-22T14:19:50;5.60;;;4.10;;
25962;SDS011;13760;52.588;13.406;2023-06-22T14:22:17;4.72;;;4.07;;
25962;SDS011;13760;52.588;13.406;2023-06-22T14:24:47;5.00;;;4.47;;
25962;SDS011;13760;52.588;13.406;2023-06-22T14:27:13;5.38;;;4.40;;
25962;SDS011;13760;52.588;13.406;2023-06-22T14:29:38;4.70;;;4.25;;
25962;SDS011;13760;52.588;13.406;2023-06-22T14:32:07;6.00;;;4.40;;